sensor_id;sensor_type;location;lat;lon;timestamp;temperature;humidity
55213;DHT22;41083;52.932;6.674;2022-12-08T00:01:25;3.30;99.90
55213;DHT22;41083;52.932;6.674;2022-12-08T00:03:51;3.30;99.90
55213;DHT22;41083;52.932;6.674;2022-12-08T00:06:26;3.30;99.90
55213;DHT22;41083;52.932;6.674;2022-12-08T00:09:17;3.20;99.90
55213;DHT22;41083;52.932;6.674;2022-12-08T00:12:03;3.20;99.90
55213;DHT22;41083;52.932;6.674;2022-12-08T00:14:31;3.20;99.90
55213;DHT22;41083;52.932;6.674;2022-12-08T00:16:58;3.20;99.90
55213;DHT22;41083;52.932;6.674;2022-12-08T00:19:25;3.20;99.90
55213;DHT22;41083;52.932;6.674;2022-12-08T00:21:51;3.20;99.90
55213;DHT22;41083;52.932;6.674;2022-12-08T00:24:18;3.20;99.90
55213;DHT22;41083;52.932;6.674;2022-12-08T00:26:44;3.20;99.90
55213;DHT22;41083;52.932;6.674;2022-12-08T00:29:10;3.20;99.90
55213;DHT22;41083;52.932;6.674;2022-12-08T00:31:35;3.20;99.90
55213;DHT22;41083;52.932;6.674;2022-12-08T00:34:01;3.20;99.90
55213;DHT22;41083;52.932;6.674;2022-12-08T00:36:27;3.20;99.90
55213;DHT22;41083;52.932;6.674;2022-12-08T00:38:53;3.20;99.90
55213;DHT22;41083;52.932;6.674;2022-12-08T00:41:21;3.20;99.90
55213;DHT22;41083;52.932;6.674;2022-12-08T00:44:07;3.20;99.90
55213;DHT22;41083;52.932;6.674;2022-12-08T00:46:33;3.20;99.90
55213;DHT22;41083;52.932;6.674;2022-12-08T00:48:58;3.30;99.90
55213;DHT22;41083;52.932;6.674;2022-12-08T00:51:24;3.30;99.90
55213;DHT22;41083;52.932;6.674;2022-12-08T00:53:50;3.30;99.90
55213;DHT22;41083;52.932;6.674;2022-12-08T00:56:15;3.30;99.90
55213;DHT22;41083;52.932;6.674;2022-12-08T00:58:41;3.30;99.90
55213;DHT22;41083;52.932;6.674;2022-12-08T01:01:13;3.30;99.90
55213;DHT22;41083;52.932;6.674;2022-12-08T01:03:39;3.40;99.90
55213;DHT22;41083;52.932;6.674;2022-12-08T01:06:06;3.40;99.90
55213;DHT22;41083;52.932;6.674;2022-12-08T01:08:32;3.40;99.90
55213;DHT22;41083;52.932;6.674;2022-12-08T01:11:05;3.40;99.90
55213;DHT22;41083;52.932;6.674;2022-12-08T01:13:31;3.50;99.90
55213;DHT22;41083;52.932;6.674;2022-12-08T01:15:56;3.50;99.90
55213;DHT22;41083;52.932;6.674;2022-12-08T01:18:22;3.50;99.90
55213;DHT22;41083;52.932;6.674;2022-12-08T01:20:47;3.50;99.90
55213;DHT22;41083;52.932;6.674;2022-12-08T01:23:13;3.50;99.90
55213;DHT22;41083;52.932;6.674;2022-12-08T01:25:39;3.50;99.90
55213;DHT22;41083;52.932;6.674;2022-12-08T01:28:04;3.50;99.90
55213;DHT22;41083;52.932;6.674;2022-12-08T01:30:30;3.50;99.90
55213;DHT22;41083;52.932;6.674;2022-12-08T01:32:56;3.50;99.90
55213;DHT22;41083;52.932;6.674;2022-12-08T01:35:22;3.50;99.90
55213;DHT22;41083;52.932;6.674;2022-12-08T01:37:49;3.50;99.90
55213;DHT22;41083;52.932;6.674;2022-12-08T01:40:15;3.50;99.90
55213;DHT22;41083;52.932;6.674;2022-12-08T01:42:40;3.50;99.90
55213;DHT22;41083;52.932;6.674;2022-12-08T01:45:13;3.50;99.90
55213;DHT22;41083;52.932;6.674;2022-12-08T01:47:45;3.50;99.90
55213;DHT22;41083;52.932;6.674;2022-12-08T01:50:15;3.50;99.90
55213;DHT22;41083;52.932;6.674;2022-12-08T01:52:52;3.40;99.90
55213;DHT22;41083;52.932;6.674;2022-12-08T01:55:26;3.40;99.90
55213;DHT22;41083;52.932;6.674;2022-12-08T01:57:55;3.40;99.90
55213;DHT22;41083;52.932;6.674;2022-12-08T02:00:22;3.40;99.90
55213;DHT22;41083;52.932;6.674;2022-12-08T02:02:58;3.40;99.90
55213;DHT22;41083;52.932;6.674;2022-12-08T02:05:27;3.40;99.90
55213;DHT22;41083;52.932;6.674;2022-12-08T02:07:55;3.40;99.90
55213;DHT22;41083;52.932;6.674;2022-12-08T02:10:22;3.40;99.90
55213;DHT22;41083;52.932;6.674;2022-12-08T02:12:50;3.40;99.90
55213;DHT22;41083;52.932;6.674;2022-12-08T02:15:18;3.30;99.90
55213;DHT22;41083;52.932;6.674;2022-12-08T02:17:56;3.40;99.90
55213;DHT22;41083;52.932;6.674;2022-12-08T02:20:43;3.30;99.90
55213;DHT22;41083;52.932;6.674;2022-12-08T02:26:16;3.30;99.90
55213;DHT22;41083;52.932;6.674;2022-12-08T02:34:26;3.20;99.90
55213;DHT22;41083;52.932;6.674;2022-12-08T02:39:27;3.20;99.90
55213;DHT22;41083;52.932;6.674;2022-12-08T02:44:51;3.20;99.90
55213;DHT22;41083;52.932;6.674;2022-12-08T02:47:19;3.20;99.90
55213;DHT22;41083;52.932;6.674;2022-12-08T02:49:46;3.20;99.90
55213;DHT22;41083;52.932;6.674;2022-12-08T02:54:55;3.20;99.90
55213;DHT22;41083;52.932;6.674;2022-12-08T03:00:04;3.20;99.90
55213;DHT22;41083;52.932;6.674;2022-12-08T03:02:44;3.20;99.90
55213;DHT22;41083;52.932;6.674;2022-12-08T03:05:34;3.20;99.90
55213;DHT22;41083;52.932;6.674;2022-12-08T03:08:07;3.30;99.90
55213;DHT22;41083;52.932;6.674;2022-12-08T03:10:55;3.30;99.90
55213;DHT22;41083;52.932;6.674;2022-12-08T03:13:27;3.30;99.90
55213;DHT22;41083;52.932;6.674;2022-12-08T03:15:54;3.30;99.90
55213;DHT22;41083;52.932;6.674;2022-12-08T03:18:23;3.30;99.90
55213;DHT22;41083;52.932;6.674;2022-12-08T03:20:50;3.30;99.90
55213;DHT22;41083;52.932;6.674;2022-12-08T03:23:17;3.40;99.90
55213;DHT22;41083;52.932;6.674;2022-12-08T03:25:55;3.40;99.90
55213;DHT22;41083;52.932;6.674;2022-12-08T03:28:23;3.40;99.90
55213;DHT22;41083;52.932;6.674;2022-12-08T03:30:52;3.40;99.90
55213;DHT22;41083;52.932;6.674;2022-12-08T03:33:27;3.40;99.90
55213;DHT22;41083;52.932;6.674;2022-12-08T03:35:54;3.40;99.90
55213;DHT22;41083;52.932;6.674;2022-12-08T03:38:21;3.50;99.90
55213;DHT22;41083;52.932;6.674;2022-12-08T03:40:47;3.50;99.90
55213;DHT22;41083;52.932;6.674;2022-12-08T03:43:32;3.50;99.90
55213;DHT22;41083;52.932;6.674;2022-12-08T03:45:58;3.50;99.90
55213;DHT22;41083;52.932;6.674;2022-12-08T03:48:24;3.50;99.90
55213;DHT22;41083;52.932;6.674;2022-12-08T03:50:49;3.50;99.90
55213;DHT22;41083;52.932;6.674;2022-12-08T03:53:15;3.50;99.90
55213;DHT22;41083;52.932;6.674;2022-12-08T03:55:40;3.50;99.90
55213;DHT22;41083;52.932;6.674;2022-12-08T03:58:06;3.40;99.90
55213;DHT22;41083;52.932;6.674;2022-12-08T04:00:32;3.40;99.90
55213;DHT22;41083;52.932;6.674;2022-12-08T04:02:57;3.40;99.90
55213;DHT22;41083;52.932;6.674;2022-12-08T04:05:23;3.30;99.90
55213;DHT22;41083;52.932;6.674;2022-12-08T04:07:48;3.40;99.90
55213;DHT22;41083;52.932;6.674;2022-12-08T04:10:14;3.30;99.90
55213;DHT22;41083;52.932;6.674;2022-12-08T04:12:40;3.40;99.90
55213;DHT22;41083;52.932;6.674;2022-12-08T04:15:06;3.30;99.90
55213;DHT22;41083;52.932;6.674;2022-12-08T04:17:31;3.30;99.90
55213;DHT22;41083;52.932;6.674;2022-12-08T04:19:57;3.30;99.90
55213;DHT22;41083;52.932;6.674;2022-12-08T04:22:22;3.30;99.90
55213;DHT22;41083;52.932;6.674;2022-12-08T04:24:48;3.30;99.90
55213;DHT22;41083;52.932;6.674;2022-12-08T04:27:14;3.30;99.90
55213;DHT22;41083;52.932;6.674;2022-12-08T04:29:39;3.30;99.90
55213;DHT22;41083;52.932;6.674;2022-12-08T04:32:05;3.40;99.90
55213;DHT22;41083;52.932;6.674;2022-12-08T04:34:30;3.30;99.90
55213;DHT22;41083;52.932;6.674;2022-12-08T04:36:56;3.30;99.90
55213;DHT22;41083;52.932;6.674;2022-12-08T04:39:22;3.30;99.90
55213;DHT22;41083;52.932;6.674;2022-12-08T04:41:47;3.30;99.90
55213;DHT22;41083;52.932;6.674;2022-12-08T04:44:13;3.30;99.90
55213;DHT22;41083;52.932;6.674;2022-12-08T04:46:38;3.30;99.90
55213;DHT22;41083;52.932;6.674;2022-12-08T04:49:04;3.30;99.90
55213;DHT22;41083;52.932;6.674;2022-12-08T04:51:30;3.30;99.90
55213;DHT22;41083;52.932;6.674;2022-12-08T04:53:55;3.30;99.90
55213;DHT22;41083;52.932;6.674;2022-12-08T04:56:21;3.30;99.90
55213;DHT22;41083;52.932;6.674;2022-12-08T04:58:46;3.30;99.90
55213;DHT22;41083;52.932;6.674;2022-12-08T05:01:13;3.30;99.90
55213;DHT22;41083;52.932;6.674;2022-12-08T05:03:38;3.30;99.90
55213;DHT22;41083;52.932;6.674;2022-12-08T05:06:04;3.30;99.90
55213;DHT22;41083;52.932;6.674;2022-12-08T05:08:31;3.40;99.90
55213;DHT22;41083;52.932;6.674;2022-12-08T05:11:04;3.30;99.90
55213;DHT22;41083;52.932;6.674;2022-12-08T05:13:30;3.30;99.90
55213;DHT22;41083;52.932;6.674;2022-12-08T05:16:11;3.40;99.90
55213;DHT22;41083;52.932;6.674;2022-12-08T05:18:38;3.40;99.90
55213;DHT22;41083;52.932;6.674;2022-12-08T05:21:05;3.40;99.90
55213;DHT22;41083;52.932;6.674;2022-12-08T05:23:31;3.40;99.90
55213;DHT22;41083;52.932;6.674;2022-12-08T05:25:56;3.40;99.90
55213;DHT22;41083;52.932;6.674;2022-12-08T05:28:23;3.40;99.90
55213;DHT22;41083;52.932;6.674;2022-12-08T05:30:48;3.40;99.90
55213;DHT22;41083;52.932;6.674;2022-12-08T05:33:14;3.40;99.90
55213;DHT22;41083;52.932;6.674;2022-12-08T05:35:40;3.40;99.90
55213;DHT22;41083;52.932;6.674;2022-12-08T05:38:05;3.40;99.90
55213;DHT22;41083;52.932;6.674;2022-12-08T05:40:31;3.40;99.90
55213;DHT22;41083;52.932;6.674;2022-12-08T05:42:57;3.30;99.90
55213;DHT22;41083;52.932;6.674;2022-12-08T05:45:22;3.40;99.90
55213;DHT22;41083;52.932;6.674;2022-12-08T05:47:48;3.40;99.90
55213;DHT22;41083;52.932;6.674;2022-12-08T05:50:14;3.40;99.90
55213;DHT22;41083;52.932;6.674;2022-12-08T05:52:39;3.50;99.90
55213;DHT22;41083;52.932;6.674;2022-12-08T05:55:05;3.40;99.90
55213;DHT22;41083;52.932;6.674;2022-12-08T05:57:31;3.40;99.90
55213;DHT22;41083;52.932;6.674;2022-12-08T05:59:56;3.40;99.90
55213;DHT22;41083;52.932;6.674;2022-12-08T06:02:24;3.40;99.90
55213;DHT22;41083;52.932;6.674;2022-12-08T06:04:50;3.40;99.90
55213;DHT22;41083;52.932;6.674;2022-12-08T06:07:16;3.40;99.90
55213;DHT22;41083;52.932;6.674;2022-12-08T06:09:42;3.40;99.90
55213;DHT22;41083;52.932;6.674;2022-12-08T06:12:07;3.40;99.90
55213;DHT22;41083;52.932;6.674;2022-12-08T06:14:37;3.40;99.90
55213;DHT22;41083;52.932;6.674;2022-12-08T06:17:03;3.50;99.90
55213;DHT22;41083;52.932;6.674;2022-12-08T06:19:28;3.50;99.90
55213;DHT22;41083;52.932;6.674;2022-12-08T06:21:54;3.50;99.90
55213;DHT22;41083;52.932;6.674;2022-12-08T06:24:19;3.50;99.90
55213;DHT22;41083;52.932;6.674;2022-12-08T06:26:45;3.50;99.90
55213;DHT22;41083;52.932;6.674;2022-12-08T06:29:11;3.50;99.90
55213;DHT22;41083;52.932;6.674;2022-12-08T06:31:37;3.60;99.90
55213;DHT22;41083;52.932;6.674;2022-12-08T06:34:03;3.60;99.90
55213;DHT22;41083;52.932;6.674;2022-12-08T06:36:28;3.50;99.90
55213;DHT22;41083;52.932;6.674;2022-12-08T06:38:54;3.50;99.90
55213;DHT22;41083;52.932;6.674;2022-12-08T06:41:20;3.60;99.90
55213;DHT22;41083;52.932;6.674;2022-12-08T06:43:46;3.50;99.90
55213;DHT22;41083;52.932;6.674;2022-12-08T06:46:14;3.40;99.90
55213;DHT22;41083;52.932;6.674;2022-12-08T06:48:41;3.40;99.90
55213;DHT22;41083;52.932;6.674;2022-12-08T06:51:15;3.40;99.90
55213;DHT22;41083;52.932;6.674;2022-12-08T06:53:42;3.30;99.90
55213;DHT22;41083;52.932;6.674;2022-12-08T06:56:08;3.30;99.90
55213;DHT22;41083;52.932;6.674;2022-12-08T06:58:34;3.30;99.90
55213;DHT22;41083;52.932;6.674;2022-12-08T07:01:11;3.30;99.90
55213;DHT22;41083;52.932;6.674;2022-12-08T07:03:38;3.30;99.90
55213;DHT22;41083;52.932;6.674;2022-12-08T07:06:05;3.20;99.90
55213;DHT22;41083;52.932;6.674;2022-12-08T07:08:31;3.20;99.90
55213;DHT22;41083;52.932;6.674;2022-12-08T07:10:57;3.30;99.90
55213;DHT22;41083;52.932;6.674;2022-12-08T07:13:22;3.20;99.90
55213;DHT22;41083;52.932;6.674;2022-12-08T07:15:48;3.20;99.90
55213;DHT22;41083;52.932;6.674;2022-12-08T07:18:14;3.20;99.90
55213;DHT22;41083;52.932;6.674;2022-12-08T07:20:39;3.20;99.90
55213;DHT22;41083;52.932;6.674;2022-12-08T07:23:05;3.30;99.90
55213;DHT22;41083;52.932;6.674;2022-12-08T07:25:31;3.30;99.90
55213;DHT22;41083;52.932;6.674;2022-12-08T07:27:56;3.30;99.90
55213;DHT22;41083;52.932;6.674;2022-12-08T07:30:22;3.30;99.90
55213;DHT22;41083;52.932;6.674;2022-12-08T07:32:48;3.30;99.90
55213;DHT22;41083;52.932;6.674;2022-12-08T07:35:13;3.30;99.90
55213;DHT22;41083;52.932;6.674;2022-12-08T07:37:39;3.30;99.90
55213;DHT22;41083;52.932;6.674;2022-12-08T07:40:06;3.30;99.90
55213;DHT22;41083;52.932;6.674;2022-12-08T07:42:32;3.30;99.90
55213;DHT22;41083;52.932;6.674;2022-12-08T07:44:58;3.30;99.90
55213;DHT22;41083;52.932;6.674;2022-12-08T07:47:24;3.30;99.90
55213;DHT22;41083;52.932;6.674;2022-12-08T07:49:49;3.30;99.90
55213;DHT22;41083;52.932;6.674;2022-12-08T07:52:15;3.30;99.90
55213;DHT22;41083;52.932;6.674;2022-12-08T07:54:41;3.30;99.90
55213;DHT22;41083;52.932;6.674;2022-12-08T07:57:06;3.30;99.90
55213;DHT22;41083;52.932;6.674;2022-12-08T07:59:33;3.30;99.90
55213;DHT22;41083;52.932;6.674;2022-12-08T08:01:59;3.30;99.90
55213;DHT22;41083;52.932;6.674;2022-12-08T08:04:24;3.30;99.90
55213;DHT22;41083;52.932;6.674;2022-12-08T08:06:50;3.20;99.90
55213;DHT22;41083;52.932;6.674;2022-12-08T08:09:15;3.20;99.90
55213;DHT22;41083;52.932;6.674;2022-12-08T08:11:41;3.20;99.90
55213;DHT22;41083;52.932;6.674;2022-12-08T08:14:07;3.20;99.90
55213;DHT22;41083;52.932;6.674;2022-12-08T08:16:32;3.20;99.90
55213;DHT22;41083;52.932;6.674;2022-12-08T08:18:58;3.10;99.90
55213;DHT22;41083;52.932;6.674;2022-12-08T08:21:23;3.10;99.90
55213;DHT22;41083;52.932;6.674;2022-12-08T08:23:49;3.10;99.90
55213;DHT22;41083;52.932;6.674;2022-12-08T08:26:14;3.10;99.90
55213;DHT22;41083;52.932;6.674;2022-12-08T08:28:40;3.10;99.90
55213;DHT22;41083;52.932;6.674;2022-12-08T08:31:06;3.10;99.90
55213;DHT22;41083;52.932;6.674;2022-12-08T08:33:31;3.10;99.90
55213;DHT22;41083;52.932;6.674;2022-12-08T08:35:57;3.10;99.90
55213;DHT22;41083;52.932;6.674;2022-12-08T08:38:23;3.10;99.90
55213;DHT22;41083;52.932;6.674;2022-12-08T08:40:48;3.10;99.90
55213;DHT22;41083;52.932;6.674;2022-12-08T08:43:14;3.10;99.90
55213;DHT22;41083;52.932;6.674;2022-12-08T08:46:09;3.10;99.90
55213;DHT22;41083;52.932;6.674;2022-12-08T08:48:35;3.00;99.90
55213;DHT22;41083;52.932;6.674;2022-12-08T08:51:09;3.00;99.90
55213;DHT22;41083;52.932;6.674;2022-12-08T08:53:35;3.00;99.90
55213;DHT22;41083;52.932;6.674;2022-12-08T08:56:00;3.00;99.90
55213;DHT22;41083;52.932;6.674;2022-12-08T08:58:26;3.00;99.90
55213;DHT22;41083;52.932;6.674;2022-12-08T09:00:52;2.90;99.90
55213;DHT22;41083;52.932;6.674;2022-12-08T09:03:17;2.90;99.90
55213;DHT22;41083;52.932;6.674;2022-12-08T09:05:43;2.90;99.90
55213;DHT22;41083;52.932;6.674;2022-12-08T09:08:10;2.90;99.90
55213;DHT22;41083;52.932;6.674;2022-12-08T09:10:35;2.90;99.90
55213;DHT22;41083;52.932;6.674;2022-12-08T09:13:01;2.80;99.90
55213;DHT22;41083;52.932;6.674;2022-12-08T09:15:27;2.90;99.90
55213;DHT22;41083;52.932;6.674;2022-12-08T09:17:53;2.90;99.90
55213;DHT22;41083;52.932;6.674;2022-12-08T09:20:18;2.90;99.90
55213;DHT22;41083;52.932;6.674;2022-12-08T09:22:44;2.80;99.90
55213;DHT22;41083;52.932;6.674;2022-12-08T09:25:09;2.90;99.90
55213;DHT22;41083;52.932;6.674;2022-12-08T09:27:35;2.90;99.90
55213;DHT22;41083;52.932;6.674;2022-12-08T09:30:01;2.90;99.90
55213;DHT22;41083;52.932;6.674;2022-12-08T09:32:26;2.90;99.90
55213;DHT22;41083;52.932;6.674;2022-12-08T09:34:52;2.90;99.90
55213;DHT22;41083;52.932;6.674;2022-12-08T09:37:18;2.90;99.90
55213;DHT22;41083;52.932;6.674;2022-12-08T09:39:44;2.90;99.90
55213;DHT22;41083;52.932;6.674;2022-12-08T09:42:10;2.90;99.90
55213;DHT22;41083;52.932;6.674;2022-12-08T09:44:46;2.90;99.90
55213;DHT22;41083;52.932;6.674;2022-12-08T09:50:36;2.90;99.90
55213;DHT22;41083;52.932;6.674;2022-12-08T09:53:36;2.90;99.90
55213;DHT22;41083;52.932;6.674;2022-12-08T09:56:08;2.90;99.90
55213;DHT22;41083;52.932;6.674;2022-12-08T10:01:23;3.00;99.90
55213;DHT22;41083;52.932;6.674;2022-12-08T10:03:51;3.00;99.90
55213;DHT22;41083;52.932;6.674;2022-12-08T10:06:26;3.00;99.90
55213;DHT22;41083;52.932;6.674;2022-12-08T10:14:34;2.90;99.90
55213;DHT22;41083;52.932;6.674;2022-12-08T10:17:22;2.90;99.90
55213;DHT22;41083;52.932;6.674;2022-12-08T10:20:05;2.90;99.90
55213;DHT22;41083;52.932;6.674;2022-12-08T10:22:34;2.80;99.90
55213;DHT22;41083;52.932;6.674;2022-12-08T10:25:08;2.80;99.90
55213;DHT22;41083;52.932;6.674;2022-12-08T10:27:35;2.80;99.90
55213;DHT22;41083;52.932;6.674;2022-12-08T10:30:12;2.80;99.90
55213;DHT22;41083;52.932;6.674;2022-12-08T10:32:38;2.80;99.90
55213;DHT22;41083;52.932;6.674;2022-12-08T10:35:08;2.80;99.90
55213;DHT22;41083;52.932;6.674;2022-12-08T10:37:34;2.90;99.90
55213;DHT22;41083;52.932;6.674;2022-12-08T10:40:12;2.90;99.90
55213;DHT22;41083;52.932;6.674;2022-12-08T10:42:46;3.00;99.90
55213;DHT22;41083;52.932;6.674;2022-12-08T10:55:40;3.20;99.90
55213;DHT22;41083;52.932;6.674;2022-12-08T10:58:23;3.20;99.90
55213;DHT22;41083;52.932;6.674;2022-12-08T11:01:02;3.30;99.90
55213;DHT22;41083;52.932;6.674;2022-12-08T11:03:32;3.30;99.90
55213;DHT22;41083;52.932;6.674;2022-12-08T11:05:59;3.40;99.90
55213;DHT22;41083;52.932;6.674;2022-12-08T11:08:26;3.40;99.90
55213;DHT22;41083;52.932;6.674;2022-12-08T11:10:53;3.40;99.90
55213;DHT22;41083;52.932;6.674;2022-12-08T11:13:22;3.50;99.90
55213;DHT22;41083;52.932;6.674;2022-12-08T11:15:49;3.50;99.90
55213;DHT22;41083;52.932;6.674;2022-12-08T11:18:28;3.60;99.90
55213;DHT22;41083;52.932;6.674;2022-12-08T11:21:17;3.60;99.90
55213;DHT22;41083;52.932;6.674;2022-12-08T11:23:48;3.60;99.90
55213;DHT22;41083;52.932;6.674;2022-12-08T11:26:31;3.60;99.90
55213;DHT22;41083;52.932;6.674;2022-12-08T11:28:59;3.70;99.90
55213;DHT22;41083;52.932;6.674;2022-12-08T11:31:32;3.70;99.90
55213;DHT22;41083;52.932;6.674;2022-12-08T11:33:59;3.70;99.90
55213;DHT22;41083;52.932;6.674;2022-12-08T11:36:28;3.70;99.90
55213;DHT22;41083;52.932;6.674;2022-12-08T11:38:57;3.80;99.90
55213;DHT22;41083;52.932;6.674;2022-12-08T11:41:28;3.90;99.90
55213;DHT22;41083;52.932;6.674;2022-12-08T11:44:08;3.90;99.90
55213;DHT22;41083;52.932;6.674;2022-12-08T11:49:12;4.00;99.90
55213;DHT22;41083;52.932;6.674;2022-12-08T11:51:53;4.00;99.90
55213;DHT22;41083;52.932;6.674;2022-12-08T11:54:25;4.10;99.90
55213;DHT22;41083;52.932;6.674;2022-12-08T11:56:58;4.10;99.90
55213;DHT22;41083;52.932;6.674;2022-12-08T11:59:38;4.20;99.90
55213;DHT22;41083;52.932;6.674;2022-12-08T12:02:23;4.30;99.90
55213;DHT22;41083;52.932;6.674;2022-12-08T12:05:06;4.30;99.90
55213;DHT22;41083;52.932;6.674;2022-12-08T12:11:00;4.50;99.90
55213;DHT22;41083;52.932;6.674;2022-12-08T12:13:49;4.50;99.90
55213;DHT22;41083;52.932;6.674;2022-12-08T12:16:47;4.50;99.90
55213;DHT22;41083;52.932;6.674;2022-12-08T12:19:17;4.50;99.90
55213;DHT22;41083;52.932;6.674;2022-12-08T12:21:48;4.50;99.90
55213;DHT22;41083;52.932;6.674;2022-12-08T12:24:21;4.50;99.90
55213;DHT22;41083;52.932;6.674;2022-12-08T12:26:59;4.50;99.90
55213;DHT22;41083;52.932;6.674;2022-12-08T12:29:28;4.50;99.90
55213;DHT22;41083;52.932;6.674;2022-12-08T12:31:57;4.50;99.90
55213;DHT22;41083;52.932;6.674;2022-12-08T12:34:34;4.50;99.90
55213;DHT22;41083;52.932;6.674;2022-12-08T12:37:13;4.60;99.90
55213;DHT22;41083;52.932;6.674;2022-12-08T12:42:43;4.80;99.90
55213;DHT22;41083;52.932;6.674;2022-12-08T12:53:02;4.80;99.90
55213;DHT22;41083;52.932;6.674;2022-12-08T12:55:50;4.80;99.90
55213;DHT22;41083;52.932;6.674;2022-12-08T12:58:34;4.70;99.90
55213;DHT22;41083;52.932;6.674;2022-12-08T13:03:44;4.70;99.90
55213;DHT22;41083;52.932;6.674;2022-12-08T13:06:12;4.70;99.90
55213;DHT22;41083;52.932;6.674;2022-12-08T13:08:40;4.60;99.90
55213;DHT22;41083;52.932;6.674;2022-12-08T13:11:14;4.60;99.90
55213;DHT22;41083;52.932;6.674;2022-12-08T13:14:15;4.50;99.90
55213;DHT22;41083;52.932;6.674;2022-12-08T13:16:53;4.50;99.90
55213;DHT22;41083;52.932;6.674;2022-12-08T13:19:20;4.40;99.90
55213;DHT22;41083;52.932;6.674;2022-12-08T13:21:46;4.40;99.90
55213;DHT22;41083;52.932;6.674;2022-12-08T13:24:24;4.40;99.90
55213;DHT22;41083;52.932;6.674;2022-12-08T13:29:30;4.40;99.90
55213;DHT22;41083;52.932;6.674;2022-12-08T13:34:43;4.40;99.90
55213;DHT22;41083;52.932;6.674;2022-12-08T13:42:29;4.30;99.90
55213;DHT22;41083;52.932;6.674;2022-12-08T13:47:44;4.30;99.90
55213;DHT22;41083;52.932;6.674;2022-12-08T13:50:13;4.20;99.90
55213;DHT22;41083;52.932;6.674;2022-12-08T13:52:47;4.20;99.90
55213;DHT22;41083;52.932;6.674;2022-12-08T13:55:21;4.20;99.90
55213;DHT22;41083;52.932;6.674;2022-12-08T13:57:48;4.10;99.90
55213;DHT22;41083;52.932;6.674;2022-12-08T14:00:17;4.10;99.90
55213;DHT22;41083;52.932;6.674;2022-12-08T14:02:48;4.00;99.90
55213;DHT22;41083;52.932;6.674;2022-12-08T14:05:17;4.00;99.90
55213;DHT22;41083;52.932;6.674;2022-12-08T14:07:43;4.00;99.90
55213;DHT22;41083;52.932;6.674;2022-12-08T14:10:21;4.00;99.90
55213;DHT22;41083;52.932;6.674;2022-12-08T14:12:54;4.00;99.90
55213;DHT22;41083;52.932;6.674;2022-12-08T14:15:20;4.00;99.90
55213;DHT22;41083;52.932;6.674;2022-12-08T14:17:52;3.90;99.90
55213;DHT22;41083;52.932;6.674;2022-12-08T14:20:32;3.90;99.90
55213;DHT22;41083;52.932;6.674;2022-12-08T14:22:57;4.00;99.90
55213;DHT22;41083;52.932;6.674;2022-12-08T14:25:25;3.90;99.90
55213;DHT22;41083;52.932;6.674;2022-12-08T14:27:59;4.00;99.90
55213;DHT22;41083;52.932;6.674;2022-12-08T14:30:34;3.90;99.90
55213;DHT22;41083;52.932;6.674;2022-12-08T14:33:03;3.90;99.90
55213;DHT22;41083;52.932;6.674;2022-12-08T14:35:36;3.90;99.90
55213;DHT22;41083;52.932;6.674;2022-12-08T14:38:05;3.80;99.90
55213;DHT22;41083;52.932;6.674;2022-12-08T14:40:47;3.80;99.90
55213;DHT22;41083;52.932;6.674;2022-12-08T14:43:18;3.70;99.90
55213;DHT22;41083;52.932;6.674;2022-12-08T14:45:45;3.70;99.90
55213;DHT22;41083;52.932;6.674;2022-12-08T14:50:57;3.60;99.90
55213;DHT22;41083;52.932;6.674;2022-12-08T14:53:24;3.60;99.90
55213;DHT22;41083;52.932;6.674;2022-12-08T14:55:50;3.50;99.90
55213;DHT22;41083;52.932;6.674;2022-12-08T14:58:27;3.50;99.90
55213;DHT22;41083;52.932;6.674;2022-12-08T15:00:56;3.50;99.90
55213;DHT22;41083;52.932;6.674;2022-12-08T15:03:24;3.50;99.90
55213;DHT22;41083;52.932;6.674;2022-12-08T15:05:52;3.40;99.90
55213;DHT22;41083;52.932;6.674;2022-12-08T15:08:20;3.40;99.90
55213;DHT22;41083;52.932;6.674;2022-12-08T15:11:39;3.40;99.90
55213;DHT22;41083;52.932;6.674;2022-12-08T15:13:58;3.30;99.90
55213;DHT22;41083;52.932;6.674;2022-12-08T15:21:39;3.30;99.90
55213;DHT22;41083;52.932;6.674;2022-12-08T15:24:05;3.20;99.90
55213;DHT22;41083;52.932;6.674;2022-12-08T15:26:38;3.20;99.90
55213;DHT22;41083;52.932;6.674;2022-12-08T15:31:41;3.10;99.90
55213;DHT22;41083;52.932;6.674;2022-12-08T15:34:07;3.00;99.90
55213;DHT22;41083;52.932;6.674;2022-12-08T15:36:32;3.00;99.90
55213;DHT22;41083;52.932;6.674;2022-12-08T15:38:58;2.90;99.90
55213;DHT22;41083;52.932;6.674;2022-12-08T15:41:24;2.90;99.90
55213;DHT22;41083;52.932;6.674;2022-12-08T15:43:49;2.90;99.90
55213;DHT22;41083;52.932;6.674;2022-12-08T15:46:15;2.90;99.90
55213;DHT22;41083;52.932;6.674;2022-12-08T15:48:41;2.90;99.90
55213;DHT22;41083;52.932;6.674;2022-12-08T15:51:06;2.90;99.90
55213;DHT22;41083;52.932;6.674;2022-12-08T15:53:32;2.90;99.90
55213;DHT22;41083;52.932;6.674;2022-12-08T15:55:59;2.80;99.90
55213;DHT22;41083;52.932;6.674;2022-12-08T15:58:28;2.80;99.90
55213;DHT22;41083;52.932;6.674;2022-12-08T16:00:53;2.80;99.90
55213;DHT22;41083;52.932;6.674;2022-12-08T16:03:24;2.80;99.90
55213;DHT22;41083;52.932;6.674;2022-12-08T16:05:51;2.70;99.90
55213;DHT22;41083;52.932;6.674;2022-12-08T16:08:17;2.70;99.90
55213;DHT22;41083;52.932;6.674;2022-12-08T16:10:43;2.70;99.90
55213;DHT22;41083;52.932;6.674;2022-12-08T16:13:14;2.80;99.90
55213;DHT22;41083;52.932;6.674;2022-12-08T16:16:00;2.80;99.90
55213;DHT22;41083;52.932;6.674;2022-12-08T16:18:28;2.80;99.90
55213;DHT22;41083;52.932;6.674;2022-12-08T16:20:54;2.90;99.90
55213;DHT22;41083;52.932;6.674;2022-12-08T16:23:20;2.90;99.90
55213;DHT22;41083;52.932;6.674;2022-12-08T16:25:45;2.90;99.90
55213;DHT22;41083;52.932;6.674;2022-12-08T16:28:11;2.90;99.90
55213;DHT22;41083;52.932;6.674;2022-12-08T16:30:37;2.90;99.90
55213;DHT22;41083;52.932;6.674;2022-12-08T16:33:03;2.90;99.90
55213;DHT22;41083;52.932;6.674;2022-12-08T16:35:29;2.90;99.90
55213;DHT22;41083;52.932;6.674;2022-12-08T16:37:55;2.90;99.90
55213;DHT22;41083;52.932;6.674;2022-12-08T16:40:21;3.00;99.90
55213;DHT22;41083;52.932;6.674;2022-12-08T16:42:47;3.00;99.90
55213;DHT22;41083;52.932;6.674;2022-12-08T16:45:25;3.00;99.90
55213;DHT22;41083;52.932;6.674;2022-12-08T16:47:54;3.00;99.90
55213;DHT22;41083;52.932;6.674;2022-12-08T16:50:25;2.90;99.90
55213;DHT22;41083;52.932;6.674;2022-12-08T16:53:03;2.90;99.90
55213;DHT22;41083;52.932;6.674;2022-12-08T16:55:29;2.80;99.90
55213;DHT22;41083;52.932;6.674;2022-12-08T16:57:56;2.80;99.90
55213;DHT22;41083;52.932;6.674;2022-12-08T17:00:24;2.80;99.90
55213;DHT22;41083;52.932;6.674;2022-12-08T17:02:50;2.80;99.90
55213;DHT22;41083;52.932;6.674;2022-12-08T17:05:17;2.70;99.90
55213;DHT22;41083;52.932;6.674;2022-12-08T17:07:45;2.70;99.90
55213;DHT22;41083;52.932;6.674;2022-12-08T17:10:13;2.70;99.90
55213;DHT22;41083;52.932;6.674;2022-12-08T17:12:40;2.70;99.90
55213;DHT22;41083;52.932;6.674;2022-12-08T17:15:09;2.80;99.90
55213;DHT22;41083;52.932;6.674;2022-12-08T17:17:36;2.80;99.90
55213;DHT22;41083;52.932;6.674;2022-12-08T17:20:04;2.90;99.90
55213;DHT22;41083;52.932;6.674;2022-12-08T17:22:32;2.90;99.90